createdAt,value
2024-01-24T00:01:39.835Z,100562.13
2024-01-24T00:04:08.714Z,100547.69
2024-01-24T00:06:38.907Z,100544.53
2024-01-24T00:09:08.519Z,100545.75
2024-01-24T00:11:36.964Z,100533.31
2024-01-24T00:14:05.080Z,100520.88
2024-01-24T00:16:33.698Z,100508.97
2024-01-24T00:19:04.738Z,100491.81
2024-01-24T00:21:32.795Z,100499.69
2024-01-24T00:24:01.213Z,100504.44
2024-01-24T00:26:30.681Z,100496.94
2024-01-24T00:28:58.882Z,100492.19
2024-01-24T00:31:30.005Z,100493.63
2024-01-24T00:34:00.528Z,100484.28
2024-01-24T00:36:28.739Z,100472.38
2024-01-24T00:38:58.912Z,100475.44
2024-01-24T00:41:33.659Z,100471.25
2024-01-24T00:44:01.761Z,100467.81
2024-01-24T00:46:32.827Z,100465.50
2024-01-24T00:49:00.927Z,100463.69
2024-01-24T00:51:29.771Z,100459.53
2024-01-24T00:53:57.729Z,100462.00
2024-01-24T00:56:37.163Z,100461.81
2024-01-24T00:59:09.730Z,100472.41
2024-01-24T01:01:38.275Z,100481.91
2024-01-24T01:04:10.048Z,100480.22
2024-01-24T01:06:38.378Z,100457.81
2024-01-24T01:09:08.572Z,100463.53
2024-01-24T01:11:39.114Z,100460.34
2024-01-24T01:14:08.866Z,100457.47
2024-01-24T01:16:39.812Z,100435.97
2024-01-24T01:19:07.973Z,100435.00
2024-01-24T01:21:40.188Z,100427.53
2024-01-24T01:24:09.657Z,100433.00
2024-01-24T01:26:37.838Z,100437.94
2024-01-24T01:29:16.666Z,100430.19
2024-01-24T01:31:46.080Z,100422.47
2024-01-24T01:34:17.230Z,100408.97
2024-01-24T01:36:48.592Z,100402.47
2024-01-24T01:39:16.638Z,100388.91
2024-01-24T01:41:48.164Z,100383.03
2024-01-24T01:44:16.975Z,100371.50
2024-01-24T01:46:49.956Z,100366.94
2024-01-24T01:49:20.018Z,100368.81
2024-01-24T01:51:51.377Z,100361.91
2024-01-24T01:54:19.691Z,100354.53
2024-01-24T01:56:51.033Z,100375.16
2024-01-24T01:59:19.056Z,100360.41
2024-01-24T02:01:48.920Z,100342.34
2024-01-24T02:04:18.030Z,100343.16
2024-01-24T02:06:46.262Z,100347.75
2024-01-24T02:09:15.055Z,100335.81
2024-01-24T02:11:43.230Z,100328.81
2024-01-24T02:14:12.261Z,100326.03
2024-01-24T02:16:40.300Z,100329.25
2024-01-24T02:19:10.354Z,100330.81
2024-01-24T02:21:38.623Z,100324.47
2024-01-24T02:24:10.750Z,100317.56
2024-01-24T02:26:38.790Z,100309.25
2024-01-24T02:29:07.326Z,100317.13
2024-01-24T02:31:35.409Z,100308.75
2024-01-24T02:34:04.101Z,100296.03
2024-01-24T02:36:32.166Z,100297.25
2024-01-24T02:39:00.175Z,100283.94
2024-01-24T02:41:29.589Z,100308.59
2024-01-24T02:43:57.596Z,100324.28
2024-01-24T02:46:25.670Z,100327.13
2024-01-24T02:48:53.662Z,100317.91
2024-01-24T02:51:28.123Z,100315.38
2024-01-24T02:53:56.117Z,100312.38
2024-01-24T02:56:24.172Z,100290.16
2024-01-24T02:58:53.583Z,100277.75
2024-01-24T03:01:22.330Z,100288.00
2024-01-24T03:03:50.466Z,100284.22
2024-01-24T03:06:18.632Z,100267.59
2024-01-24T03:08:50.867Z,100271.22
2024-01-24T03:11:18.953Z,100254.84
2024-01-24T03:13:47.281Z,100240.59
2024-01-24T03:16:17.238Z,100236.84
2024-01-24T03:18:45.808Z,100242.31
2024-01-24T03:21:18.628Z,100248.50
2024-01-24T03:23:47.140Z,100219.06
2024-01-24T03:26:16.454Z,100215.06
2024-01-24T03:28:45.065Z,100208.50
2024-01-24T03:31:14.226Z,100219.94
2024-01-24T03:33:43.720Z,100222.34
2024-01-24T03:36:12.272Z,100226.25
2024-01-24T03:38:40.317Z,100212.41
2024-01-24T03:41:08.407Z,100247.06
2024-01-24T03:43:36.505Z,100293.03
2024-01-24T03:46:04.647Z,100282.84
2024-01-24T03:48:32.840Z,100277.25
2024-01-24T03:51:02.466Z,100323.59
2024-01-24T03:53:30.645Z,100283.66
2024-01-24T03:55:58.700Z,100288.47
2024-01-24T03:58:27.115Z,100277.28
2024-01-24T04:00:56.691Z,100294.06
2024-01-24T04:03:24.933Z,100281.88
2024-01-24T04:05:53.055Z,100286.13
2024-01-24T04:08:22.508Z,100278.00
2024-01-24T04:10:50.511Z,100278.56
2024-01-24T04:13:18.483Z,100263.31
2024-01-24T04:15:46.531Z,100274.13
2024-01-24T04:18:14.739Z,100255.22
2024-01-24T04:20:42.952Z,100286.81
2024-01-24T04:23:10.959Z,100290.84
2024-01-24T04:25:40.322Z,100281.03
2024-01-24T04:28:10.345Z,100274.91
2024-01-24T04:30:39.278Z,100273.19
2024-01-24T04:33:08.644Z,100272.84
2024-01-24T04:35:36.723Z,100254.75
2024-01-24T04:38:04.953Z,100263.94
2024-01-24T04:40:33.241Z,100277.66
2024-01-24T04:43:02.691Z,100278.41
2024-01-24T04:45:30.827Z,100270.50
2024-01-24T04:47:59.026Z,100274.25
2024-01-24T04:50:27.221Z,100288.84
2024-01-24T04:52:55.272Z,100291.53
2024-01-24T04:55:23.218Z,100300.69
2024-01-24T04:57:51.290Z,100312.31
2024-01-24T05:00:23.520Z,100306.13
2024-01-24T05:02:51.474Z,100289.09
2024-01-24T05:05:19.445Z,100294.31
2024-01-24T05:07:47.573Z,100292.75
2024-01-24T05:10:17.315Z,100297.41
2024-01-24T05:12:45.314Z,100300.44
2024-01-24T05:15:15.572Z,100303.34
2024-01-24T05:17:45.219Z,100317.91
2024-01-24T05:20:13.602Z,100303.69
2024-01-24T05:22:41.781Z,100335.88
2024-01-24T05:25:09.924Z,100327.50
2024-01-24T05:27:38.136Z,100329.84
2024-01-24T05:30:16.330Z,100304.44
2024-01-24T05:32:57.064Z,100315.38
2024-01-24T05:35:25.134Z,100319.97
2024-01-24T05:37:53.094Z,100320.47
2024-01-24T05:40:21.257Z,100320.59
2024-01-24T05:42:50.455Z,100320.84
2024-01-24T05:45:20.899Z,100325.34
2024-01-24T05:47:48.975Z,100330.13
2024-01-24T05:50:18.544Z,100343.50
2024-01-24T05:52:46.850Z,100362.53
2024-01-24T05:55:14.805Z,100355.44
2024-01-24T05:57:43.716Z,100340.19
2024-01-24T06:00:15.733Z,100353.97
2024-01-24T06:02:45.239Z,100372.22
2024-01-24T06:05:16.303Z,100371.38
2024-01-24T06:07:47.666Z,100367.53
2024-01-24T06:10:15.935Z,100389.78
2024-01-24T06:12:44.111Z,100372.56
2024-01-24T06:15:12.317Z,100364.09
2024-01-24T06:17:40.282Z,100363.06
2024-01-24T06:20:10.271Z,100381.50
2024-01-24T06:22:38.290Z,100384.81
2024-01-24T06:25:08.833Z,100377.91
2024-01-24T06:27:37.032Z,100381.44
2024-01-24T06:30:22.034Z,100399.28
2024-01-24T06:32:53.194Z,100402.47
2024-01-24T06:35:22.784Z,100394.31
2024-01-24T06:37:53.169Z,100393.44
2024-01-24T06:40:22.739Z,100393.44
2024-01-24T06:42:51.764Z,100403.59
2024-01-24T06:45:20.335Z,100393.19
2024-01-24T06:47:51.296Z,100404.25
2024-01-24T06:50:19.579Z,100395.75
2024-01-24T06:52:47.908Z,100387.41
2024-01-24T06:55:16.320Z,100405.56
2024-01-24T06:57:45.865Z,100412.22
2024-01-24T07:00:15.159Z,100406.97
2024-01-24T07:02:43.176Z,100411.88
2024-01-24T07:05:11.950Z,100399.78
2024-01-24T07:07:39.978Z,100405.25
2024-01-24T07:10:13.092Z,100404.06
2024-01-24T07:12:47.182Z,100423.22
2024-01-24T07:15:18.463Z,100421.41
2024-01-24T07:17:47.640Z,100427.47
2024-01-24T07:20:17.036Z,100439.44
2024-01-24T07:22:45.361Z,100430.03
2024-01-24T07:25:13.342Z,100428.94
2024-01-24T07:27:41.442Z,100440.28
2024-01-24T07:30:10.242Z,100426.63
2024-01-24T07:32:42.033Z,100443.44
2024-01-24T07:35:11.288Z,100432.03
2024-01-24T07:37:39.428Z,100469.31
2024-01-24T07:40:09.530Z,100450.97
2024-01-24T07:42:37.650Z,100447.00
2024-01-24T07:45:06.390Z,100452.13
2024-01-24T07:47:34.703Z,100445.41
2024-01-24T07:50:05.739Z,100452.56
2024-01-24T07:52:40.732Z,100465.88
2024-01-24T07:55:11.659Z,100473.25
2024-01-24T07:57:40.362Z,100468.88
2024-01-24T08:00:09.802Z,100477.97
2024-01-24T08:02:38.183Z,100475.63
2024-01-24T08:05:07.959Z,100478.81
2024-01-24T08:07:38.118Z,100479.25
2024-01-24T08:10:07.539Z,100502.75
2024-01-24T08:12:35.752Z,100488.34
2024-01-24T08:15:06.450Z,100501.25
2024-01-24T08:17:35.914Z,100501.25
2024-01-24T08:20:06.102Z,100489.59
2024-01-24T08:22:35.954Z,100510.84
2024-01-24T08:25:04.507Z,100501.16
2024-01-24T08:27:32.577Z,100517.59
2024-01-24T08:30:01.345Z,100524.84
2024-01-24T08:32:29.316Z,100534.91
2024-01-24T08:34:57.387Z,100539.06
2024-01-24T08:37:25.532Z,100540.88
2024-01-24T08:39:54.963Z,100523.88
2024-01-24T08:42:22.997Z,100524.31
2024-01-24T08:44:51.219Z,100538.31
2024-01-24T08:47:19.239Z,100524.44
2024-01-24T08:49:47.625Z,100528.50
2024-01-24T08:52:15.793Z,100548.28
2024-01-24T08:54:45.244Z,100546.66
2024-01-24T08:57:15.260Z,100541.72
2024-01-24T08:59:43.359Z,100533.72
2024-01-24T09:02:11.910Z,100543.56
2024-01-24T09:04:40.370Z,100545.50
2024-01-24T09:07:09.538Z,100537.66
2024-01-24T09:09:40.875Z,100551.66
2024-01-24T09:12:11.443Z,100555.09
2024-01-24T09:14:42.112Z,100570.28
2024-01-24T09:17:10.336Z,100578.72
2024-01-24T09:19:43.157Z,100578.81
2024-01-24T09:22:11.716Z,100569.19
2024-01-24T09:24:40.010Z,100581.72
2024-01-24T09:27:08.274Z,100570.16
2024-01-24T09:29:36.212Z,100577.97
2024-01-24T09:32:06.177Z,100583.06
2024-01-24T09:34:34.411Z,100592.59
2024-01-24T09:37:03.204Z,100596.66
2024-01-24T09:39:31.203Z,100591.84
2024-01-24T09:42:01.169Z,100591.13
2024-01-24T09:44:34.171Z,100595.50
2024-01-24T09:47:03.939Z,100594.31
2024-01-24T09:49:34.365Z,100589.16
2024-01-24T09:52:04.986Z,100588.53
2024-01-24T09:54:34.294Z,100582.66
2024-01-24T09:57:04.085Z,100585.13
2024-01-24T09:59:32.164Z,100596.34
2024-01-24T10:02:00.933Z,100595.06
2024-01-24T10:04:38.071Z,100599.22
2024-01-24T10:07:10.485Z,100592.94
2024-01-24T10:09:38.934Z,100603.16
2024-01-24T10:12:07.944Z,100602.63
2024-01-24T10:14:35.993Z,100615.59
2024-01-24T10:17:07.250Z,100599.66
2024-01-24T10:19:35.432Z,100595.69
2024-01-24T10:22:05.156Z,100616.22
2024-01-24T10:24:38.394Z,100604.66
2024-01-24T10:27:06.886Z,100621.88
2024-01-24T10:29:34.981Z,100596.34
2024-01-24T10:32:03.058Z,100605.53
2024-01-24T10:34:31.519Z,100612.03
2024-01-24T10:37:00.951Z,100616.41
2024-01-24T10:39:30.198Z,100609.03
2024-01-24T10:42:07.599Z,100634.75
2024-01-24T10:44:39.110Z,100629.97
2024-01-24T10:47:08.030Z,100624.69
2024-01-24T10:49:37.143Z,100610.91
2024-01-24T10:52:07.711Z,100643.56
2024-01-24T10:54:38.699Z,100622.09
2024-01-24T10:57:09.148Z,100643.03
2024-01-24T10:59:39.808Z,100646.13
2024-01-24T11:02:11.290Z,100612.41
2024-01-24T11:04:40.469Z,100639.47
2024-01-24T11:07:15.994Z,100612.78
2024-01-24T11:09:55.126Z,100640.16
2024-01-24T11:12:25.280Z,100644.41
2024-01-24T11:14:53.691Z,100638.03
2024-01-24T11:17:22.695Z,100653.53
2024-01-24T11:19:51.072Z,100662.75
2024-01-24T11:22:30.259Z,100661.19
2024-01-24T11:25:00.527Z,100672.19
2024-01-24T11:27:35.417Z,100682.31
2024-01-24T11:30:20.062Z,100691.06
2024-01-24T11:33:02.622Z,100677.47
2024-01-24T11:35:35.046Z,100680.41
2024-01-24T11:38:16.283Z,100701.09
2024-01-24T11:40:53.855Z,100714.91
2024-01-24T11:43:27.540Z,100697.22
2024-01-24T11:45:56.712Z,100711.41
2024-01-24T11:48:25.725Z,100721.28
2024-01-24T11:50:58.766Z,100722.16
2024-01-24T11:53:26.994Z,100727.84
2024-01-24T11:55:57.436Z,100724.78
2024-01-24T11:58:29.797Z,100739.53
2024-01-24T12:00:58.823Z,100728.03
2024-01-24T12:03:27.416Z,100754.66
2024-01-24T12:05:56.489Z,100747.03
2024-01-24T12:08:24.756Z,100739.31
2024-01-24T12:10:52.961Z,100752.81
2024-01-24T12:13:24.496Z,100781.84
2024-01-24T12:15:56.797Z,100760.53
2024-01-24T12:18:25.405Z,100759.59
2024-01-24T12:20:57.804Z,100766.59
2024-01-24T12:23:29.531Z,100795.44
2024-01-24T12:25:59.573Z,100777.81
2024-01-24T12:28:27.823Z,100787.59
2024-01-24T12:30:58.900Z,100781.25
2024-01-24T12:33:27.284Z,100795.03
2024-01-24T12:35:55.384Z,100783.47
2024-01-24T12:38:25.195Z,100784.59
2024-01-24T12:40:54.625Z,100785.66
2024-01-24T12:43:25.643Z,100794.69
2024-01-24T12:45:55.282Z,100785.75
2024-01-24T12:48:25.565Z,100791.84
2024-01-24T12:50:54.263Z,100801.41
2024-01-24T12:53:23.645Z,100766.69
2024-01-24T12:55:52.110Z,100813.59
2024-01-24T12:58:20.292Z,100810.72
2024-01-24T13:00:48.704Z,100816.72
2024-01-24T13:03:20.616Z,100827.22
2024-01-24T13:05:53.384Z,100839.41
2024-01-24T13:08:22.287Z,100828.72
2024-01-24T13:10:53.287Z,100841.34
2024-01-24T13:13:22.174Z,100848.63
2024-01-24T13:15:54.226Z,100842.94
2024-01-24T13:18:22.644Z,100815.31
2024-01-24T13:20:52.224Z,100844.47
2024-01-24T13:23:20.300Z,100856.38
2024-01-24T13:25:48.490Z,100848.84
2024-01-24T13:28:16.569Z,100864.47
2024-01-24T13:30:45.390Z,100878.59
2024-01-24T13:33:13.683Z,100897.16
2024-01-24T13:35:41.861Z,100889.25
2024-01-24T13:38:11.557Z,100897.25
2024-01-24T13:40:40.206Z,100894.75
2024-01-24T13:43:08.373Z,100920.66
2024-01-24T13:45:39.767Z,100922.59
2024-01-24T13:48:10.638Z,100929.19
2024-01-24T13:50:39.162Z,100910.50
2024-01-24T13:53:07.488Z,100931.84
2024-01-24T13:55:37.117Z,100919.06
2024-01-24T13:58:05.722Z,100919.84
2024-01-24T14:00:34.076Z,100944.06
2024-01-24T14:03:02.221Z,100954.06
2024-01-24T14:05:31.001Z,100952.72
2024-01-24T14:07:59.257Z,100960.16
2024-01-24T14:10:27.589Z,100951.59
2024-01-24T14:12:57.404Z,100982.44
2024-01-24T14:15:33.509Z,101000.03
2024-01-24T14:18:04.924Z,100967.16
2024-01-24T14:20:34.310Z,100975.09
2024-01-24T14:23:02.965Z,100998.00
2024-01-24T14:25:31.042Z,101002.19
2024-01-24T14:28:00.802Z,100994.34
2024-01-24T14:30:29.030Z,100988.06
2024-01-24T14:32:57.312Z,101004.41
2024-01-24T14:35:25.757Z,101007.09
2024-01-24T14:37:54.148Z,101019.22
2024-01-24T14:40:22.844Z,101043.22
2024-01-24T14:42:50.985Z,101048.47
2024-01-24T14:45:20.726Z,101048.38
2024-01-24T14:47:49.481Z,101066.00
2024-01-24T14:50:18.229Z,101063.25
2024-01-24T14:52:46.479Z,101056.88
2024-01-24T14:55:14.912Z,101081.16
2024-01-24T14:57:43.762Z,101098.06
2024-01-24T15:00:13.787Z,101085.03
2024-01-24T15:02:43.623Z,101085.78
2024-01-24T15:05:11.850Z,101102.84
2024-01-24T15:07:40.882Z,101088.91
2024-01-24T15:10:10.217Z,101102.53
2024-01-24T15:12:38.940Z,101104.34
2024-01-24T15:15:08.783Z,101112.06
2024-01-24T15:17:37.128Z,101115.16
2024-01-24T15:20:09.625Z,101125.00
2024-01-24T15:22:39.656Z,101145.47
2024-01-24T15:25:10.392Z,101120.25
2024-01-24T15:27:38.746Z,101129.91
2024-01-24T15:30:08.229Z,101138.59
2024-01-24T15:32:36.993Z,101138.41
2024-01-24T15:35:07.887Z,101131.00
2024-01-24T15:37:36.122Z,101150.47
2024-01-24T15:40:08.212Z,101158.72
2024-01-24T15:42:43.012Z,101164.91
2024-01-24T15:45:13.509Z,101145.28
2024-01-24T15:47:42.846Z,101166.97
2024-01-24T15:50:14.327Z,101166.44
2024-01-24T15:52:42.665Z,101193.34
2024-01-24T15:55:11.328Z,101176.34
2024-01-24T15:57:39.542Z,101166.09
2024-01-24T16:00:11.188Z,101196.44
2024-01-24T16:02:40.153Z,101170.63
2024-01-24T16:05:24.330Z,101189.31
2024-01-24T16:07:53.297Z,101195.00
2024-01-24T16:10:21.501Z,101203.00
2024-01-24T16:12:50.107Z,101222.72
2024-01-24T16:15:18.275Z,101208.75
2024-01-24T16:17:46.316Z,101194.50
2024-01-24T16:20:15.929Z,101214.09
2024-01-24T16:22:50.983Z,101217.44
2024-01-24T16:25:24.221Z,101213.75
2024-01-24T16:27:52.262Z,101216.72
2024-01-24T16:30:20.866Z,101230.94
2024-01-24T16:32:52.649Z,101233.88
2024-01-24T16:35:22.639Z,101248.31
2024-01-24T16:37:50.725Z,101245.06
2024-01-24T16:40:19.001Z,101249.50
2024-01-24T16:42:47.338Z,101268.88
2024-01-24T16:45:15.951Z,101268.59
2024-01-24T16:47:46.223Z,101273.09
2024-01-24T16:50:14.738Z,101291.34
2024-01-24T16:52:44.115Z,101279.91
2024-01-24T16:55:12.714Z,101281.88
2024-01-24T16:57:40.889Z,101290.50
2024-01-24T17:00:10.255Z,101306.72
2024-01-24T17:02:43.351Z,101293.97
2024-01-24T17:05:18.043Z,101320.44
2024-01-24T17:07:47.795Z,101318.03
2024-01-24T17:10:16.957Z,101312.53
2024-01-24T17:12:45.446Z,101328.31
2024-01-24T17:15:14.912Z,101340.28
2024-01-24T17:17:45.203Z,101334.66
2024-01-24T17:20:13.476Z,101357.94
2024-01-24T17:22:42.445Z,101349.63
2024-01-24T17:25:12.888Z,101335.34
2024-01-24T17:27:40.853Z,101358.91
2024-01-24T17:30:10.075Z,101345.16
2024-01-24T17:32:38.171Z,101356.47
2024-01-24T17:35:07.039Z,101363.19
2024-01-24T17:37:35.888Z,101365.31
2024-01-24T17:40:05.624Z,101375.03
2024-01-24T17:42:35.197Z,101371.59
2024-01-24T17:45:03.449Z,101373.16
2024-01-24T17:47:34.118Z,101371.06
2024-01-24T17:50:03.385Z,101387.97
2024-01-24T17:52:31.545Z,101391.72
2024-01-24T17:55:01.027Z,101365.41
2024-01-24T17:57:29.405Z,101391.72
2024-01-24T18:00:00.891Z,101409.59
2024-01-24T18:02:29.174Z,101401.00
2024-01-24T18:04:57.375Z,101428.22
2024-01-24T18:07:25.761Z,101412.91
2024-01-24T18:09:56.500Z,101438.78
2024-01-24T18:12:24.851Z,101434.78
2024-01-24T18:14:52.964Z,101442.16
2024-01-24T18:17:22.666Z,101421.53
2024-01-24T18:19:51.879Z,101434.16
2024-01-24T18:22:19.977Z,101421.69
2024-01-24T18:24:48.186Z,101454.59
2024-01-24T18:27:16.294Z,101444.47
2024-01-24T18:29:44.795Z,101452.00
2024-01-24T18:32:14.541Z,101451.72
2024-01-24T18:34:44.291Z,101448.00
2024-01-24T18:37:12.754Z,101446.13
2024-01-24T18:39:40.832Z,101452.47
2024-01-24T18:42:09.737Z,101462.84
2024-01-24T18:44:38.196Z,101467.38
2024-01-24T18:47:06.872Z,101468.53
2024-01-24T18:49:35.100Z,101464.63
2024-01-24T18:52:05.042Z,101477.25
2024-01-24T18:54:33.671Z,101479.91
2024-01-24T18:57:08.935Z,101485.41
2024-01-24T18:59:47.182Z,101495.00
2024-01-24T19:02:16.991Z,101498.16
2024-01-24T19:04:46.877Z,101526.31
2024-01-24T19:07:17.057Z,101517.66
2024-01-24T19:09:46.531Z,101507.66
2024-01-24T19:12:15.654Z,101527.09
2024-01-24T19:14:43.864Z,101530.84
2024-01-24T19:17:23.664Z,101516.88
2024-01-24T19:19:52.571Z,101540.06
2024-01-24T19:22:23.186Z,101535.69
2024-01-24T19:24:51.735Z,101537.13
2024-01-24T19:27:20.021Z,101540.94
2024-01-24T19:29:47.971Z,101554.91
2024-01-24T19:32:16.098Z,101560.06
2024-01-24T19:34:53.118Z,101567.34
2024-01-24T19:37:23.549Z,101567.50
2024-01-24T19:39:51.622Z,101564.63
2024-01-24T19:42:25.187Z,101561.16
2024-01-24T19:44:53.851Z,101578.00
2024-01-24T19:47:22.501Z,101573.28
2024-01-24T19:49:50.649Z,101569.22
2024-01-24T19:52:18.764Z,101574.78
2024-01-24T19:54:48.247Z,101592.72
2024-01-24T19:57:16.622Z,101585.34
2024-01-24T19:59:45.033Z,101572.75
2024-01-24T20:02:13.083Z,101573.00
2024-01-24T20:04:41.191Z,101580.53
2024-01-24T20:07:09.388Z,101590.47
2024-01-24T20:09:37.437Z,101579.25
2024-01-24T20:12:07.902Z,101600.00
2024-01-24T20:14:36.803Z,101600.09
2024-01-24T20:17:05.091Z,101605.44
2024-01-24T20:19:33.113Z,101600.97
2024-01-24T20:22:01.286Z,101612.88
2024-01-24T20:24:29.420Z,101604.63
2024-01-24T20:26:57.554Z,101623.03
2024-01-24T20:29:26.907Z,101617.06
2024-01-24T20:31:55.291Z,101618.28
2024-01-24T20:34:23.713Z,101635.75
2024-01-24T20:36:51.867Z,101626.91
2024-01-24T20:39:23.596Z,101616.47
2024-01-24T20:41:51.640Z,101644.06
2024-01-24T20:44:21.852Z,101635.72
2024-01-24T20:46:52.232Z,101627.16
2024-01-24T20:49:20.270Z,101628.66
2024-01-24T20:51:50.230Z,101636.88
2024-01-24T20:54:18.572Z,101642.13
2024-01-24T20:56:46.557Z,101646.50
2024-01-24T20:59:15.180Z,101638.28
2024-01-24T21:01:44.694Z,101648.03
2024-01-24T21:04:14.328Z,101649.19
2024-01-24T21:06:42.452Z,101655.97
2024-01-24T21:09:11.101Z,101653.06
2024-01-24T21:11:39.021Z,101657.75
2024-01-24T21:14:07.031Z,101651.06
2024-01-24T21:16:36.849Z,101636.34
2024-01-24T21:19:04.923Z,101642.00
2024-01-24T21:21:34.483Z,101654.69
2024-01-24T21:24:02.659Z,101628.84
2024-01-24T21:26:31.045Z,101651.16
2024-01-24T21:28:59.038Z,101664.19
2024-01-24T21:31:27.114Z,101643.41
2024-01-24T21:33:55.159Z,101664.22
2024-01-24T21:36:23.271Z,101648.00
2024-01-24T21:38:53.032Z,101658.81
2024-01-24T21:41:21.036Z,101676.38
2024-01-24T21:43:48.994Z,101661.78
2024-01-24T21:46:17.075Z,101669.84
2024-01-24T21:48:45.271Z,101669.50
2024-01-24T21:51:14.312Z,101660.78
2024-01-24T21:53:42.317Z,101666.09
2024-01-24T21:56:13.306Z,101673.06
2024-01-24T21:58:42.538Z,101678.31
2024-01-24T22:01:10.693Z,101681.78
2024-01-24T22:03:38.838Z,101678.59
2024-01-24T22:06:07.732Z,101676.13
2024-01-24T22:08:35.735Z,101675.00
2024-01-24T22:11:03.713Z,101681.19
2024-01-24T22:13:33.149Z,101675.44
2024-01-24T22:16:09.464Z,101671.47
2024-01-24T22:18:44.274Z,101659.94
2024-01-24T22:21:18.361Z,101670.59
2024-01-24T22:23:46.481Z,101683.91
2024-01-24T22:26:14.465Z,101679.41
2024-01-24T22:28:43.811Z,101680.03
2024-01-24T22:31:11.841Z,101703.41
2024-01-24T22:33:39.965Z,101709.41
2024-01-24T22:36:08.799Z,101706.88
2024-01-24T22:38:37.004Z,101728.00
2024-01-24T22:41:06.412Z,101717.59
2024-01-24T22:43:34.455Z,101719.56
2024-01-24T22:46:04.383Z,101714.41
2024-01-24T22:48:32.598Z,101713.38
2024-01-24T22:51:01.107Z,101706.81
2024-01-24T22:53:29.157Z,101736.00
2024-01-24T22:55:58.634Z,101724.47
2024-01-24T22:58:31.193Z,101729.81
2024-01-24T23:00:59.851Z,101722.53
2024-01-24T23:03:30.105Z,101719.16
2024-01-24T23:05:58.332Z,101716.63
2024-01-24T23:08:26.503Z,101734.03
2024-01-24T23:10:54.599Z,101750.56
2024-01-24T23:13:22.712Z,101743.31
2024-01-24T23:15:51.333Z,101741.16
2024-01-24T23:18:19.609Z,101750.50
2024-01-24T23:20:56.632Z,101749.69
2024-01-24T23:23:27.060Z,101751.00
2024-01-24T23:25:56.562Z,101758.16
2024-01-24T23:28:24.919Z,101767.31
2024-01-24T23:30:53.575Z,101765.38
2024-01-24T23:33:21.762Z,101767.66
2024-01-24T23:35:51.123Z,101769.38
2024-01-24T23:38:19.409Z,101770.47
2024-01-24T23:40:47.692Z,101760.06
2024-01-24T23:43:16.150Z,101774.91
2024-01-24T23:45:47.129Z,101772.97
2024-01-24T23:48:15.441Z,101784.28
2024-01-24T23:50:44.762Z,101780.81
2024-01-24T23:53:16.823Z,101791.41
2024-01-24T23:55:47.296Z,101793.25
2024-01-24T23:58:15.425Z,101788.59
